Time,TemperatureF,DewpointF,PressureIn,WindDirection,WindDirectionDegrees,WindSpeedMPH,WindSpeedGustMPH,Humidity,HourlyPrecipIn,Conditions,Clouds,dailyrainin,SoftwareType,DateUTC
2013-01-27 00:01:00,11.2,7.6,30.51,NNW,331,0.0,0.0,85,0.00,,,0.02,Wunderground v.1.15,2013-01-27 05:01:00,
2013-01-27 00:02:00,11.1,7.5,30.51,NNW,331,0.0,0.0,85,0.00,,,0.00,Wunderground v.1.15,2013-01-27 05:02:00,
2013-01-27 00:06:00,10.9,7.5,30.51,NNW,331,0.0,0.0,86,0.00,,,0.00,Wunderground v.1.15,2013-01-27 05:06:00,
2013-01-27 00:12:00,10.7,7.3,30.51,NNW,331,0.0,0.0,86,0.00,,,0.00,Wunderground v.1.15,2013-01-27 05:12:00,
2013-01-27 00:18:00,10.5,7.4,30.51,NNW,331,0.0,0.0,87,0.00,,,0.00,Wunderground v.1.15,2013-01-27 05:18:00,
2013-01-27 00:25:00,10.5,7.4,30.50,NNW,331,0.0,0.0,87,0.00,,,0.00,Wunderground v.1.15,2013-01-27 05:25:00,
2013-01-27 00:30:00,10.4,7.3,30.50,NNW,331,0.0,0.0,87,0.00,,,0.00,Wunderground v.1.15,2013-01-27 05:30:00,
2013-01-27 00:35:00,10.3,7.5,30.50,NNW,331,0.0,0.0,88,0.00,,,0.00,Wunderground v.1.15,2013-01-27 05:35:00,
2013-01-27 00:40:00,10.3,7.5,30.50,NNW,331,0.0,0.0,88,0.00,,,0.00,Wunderground v.1.15,2013-01-27 05:40:00,
2013-01-27 00:45:00,10.3,7.7,30.50,NNW,331,0.0,0.0,89,0.00,,,0.00,Wunderground v.1.15,2013-01-27 05:45:00,
2013-01-27 00:50:00,10.5,7.9,30.51,NNW,331,0.0,0.0,89,0.00,,,0.00,Wunderground v.1.15,2013-01-27 05:50:00,
2013-01-27 00:55:00,10.7,8.1,30.51,NNW,331,0.0,0.0,89,0.00,,,0.00,Wunderground v.1.15,2013-01-27 05:55:00,
2013-01-27 01:01:00,10.8,8.4,30.51,NNW,331,0.0,0.0,90,0.00,,,0.00,Wunderground v.1.15,2013-01-27 06:01:00,
2013-01-27 01:06:00,10.9,8.5,30.52,NNW,331,0.0,0.0,90,0.00,,,0.00,Wunderground v.1.15,2013-01-27 06:06:00,
2013-01-27 01:11:00,11.0,8.6,30.52,NNW,331,0.0,0.0,90,0.00,,,0.00,Wunderground v.1.15,2013-01-27 06:11:00,
2013-01-27 01:17:00,11.0,8.6,30.52,NNW,331,0.0,0.0,90,0.00,,,0.00,Wunderground v.1.15,2013-01-27 06:17:00,
2013-01-27 01:22:00,11.0,8.6,30.52,NNW,331,0.0,0.0,90,0.00,,,0.00,Wunderground v.1.15,2013-01-27 06:22:00,
2013-01-27 01:27:00,11.0,8.6,30.53,NNW,331,0.0,0.0,90,0.00,,,0.00,Wunderground v.1.15,2013-01-27 06:27:00,
2013-01-27 01:33:00,10.8,8.4,30.53,NNW,331,0.0,0.0,90,0.00,,,0.00,Wunderground v.1.15,2013-01-27 06:33:00,
2013-01-27 01:38:00,10.7,8.3,30.53,NNW,331,0.0,0.0,90,0.00,,,0.00,Wunderground v.1.15,2013-01-27 06:38:00,
2013-01-27 01:43:00,10.5,8.1,30.52,NNW,331,0.0,0.0,90,0.00,,,0.00,Wunderground v.1.15,2013-01-27 06:43:00,
2013-01-27 01:48:00,10.3,8.0,30.52,NNW,331,0.0,0.0,90,0.00,,,0.00,Wunderground v.1.15,2013-01-27 06:48:00,
2013-01-27 01:53:00,10.1,7.8,30.53,NNW,331,0.0,0.0,90,0.00,,,0.00,Wunderground v.1.15,2013-01-27 06:53:00,
2013-01-27 01:59:00,9.7,7.4,30.53,NNW,331,0.0,0.0,90,0.00,,,0.00,Wunderground v.1.15,2013-01-27 06:59:00,
2013-01-27 02:04:00,9.5,6.9,30.53,NNW,331,0.0,0.0,89,0.00,,,0.00,Wunderground v.1.15,2013-01-27 07:04:00,
2013-01-27 02:13:00,9.3,7.0,30.53,NNW,331,0.0,0.0,90,0.00,,,0.00,Wunderground v.1.15,2013-01-27 07:13:00,
2013-01-27 02:18:00,9.2,6.9,30.53,NNW,331,0.0,0.0,90,0.00,,,0.00,Wunderground v.1.15,2013-01-27 07:18:00,
2013-01-27 02:23:00,8.9,6.6,30.54,NNW,331,0.0,0.0,90,0.00,,,0.00,Wunderground v.1.15,2013-01-27 07:23:00,
2013-01-27 02:28:00,8.8,6.5,30.55,NNW,331,0.0,0.0,90,0.00,,,0.00,Wunderground v.1.15,2013-01-27 07:28:00,
2013-01-27 02:34:00,8.9,6.6,30.55,NNW,331,0.0,0.0,90,0.00,,,0.00,Wunderground v.1.15,2013-01-27 07:34:00,
2013-01-27 02:39:00,9.0,6.7,30.54,NNW,331,0.0,0.0,90,0.00,,,0.00,Wunderground v.1.15,2013-01-27 07:39:00,
2013-01-27 02:44:00,9.0,6.7,30.54,NNW,331,0.0,0.0,90,0.00,,,0.00,Wunderground v.1.15,2013-01-27 07:44:00,
2013-01-27 02:49:00,9.0,6.9,30.54,NNW,331,0.0,0.0,91,0.00,,,0.00,Wunderground v.1.15,2013-01-27 07:49:00,
2013-01-27 02:55:00,9.1,7.0,30.54,NNW,331,0.0,0.0,91,0.00,,,0.00,Wunderground v.1.15,2013-01-27 07:55:00,
2013-01-27 03:01:00,9.2,7.1,30.54,NNW,331,0.0,0.0,91,0.00,,,0.00,Wunderground v.1.15,2013-01-27 08:01:00,
2013-01-27 03:06:00,9.4,7.3,30.54,NNW,331,0.0,0.0,91,0.00,,,0.00,Wunderground v.1.15,2013-01-27 08:06:00,
2013-01-27 03:11:00,9.5,7.4,30.54,NNW,331,0.0,0.0,91,0.00,,,0.00,Wunderground v.1.15,2013-01-27 08:11:00,
2013-01-27 03:16:00,9.6,7.5,30.54,NNW,331,0.0,0.0,91,0.00,,,0.00,Wunderground v.1.15,2013-01-27 08:16:00,
2013-01-27 03:21:00,9.8,7.9,30.54,NNW,331,0.0,0.0,92,0.00,,,0.00,Wunderground v.1.15,2013-01-27 08:21:00,
2013-01-27 03:26:00,9.9,8.0,30.54,NNW,331,0.0,0.0,92,0.00,,,0.00,Wunderground v.1.15,2013-01-27 08:26:00,
2013-01-27 03:31:00,10.0,8.1,30.54,NNW,331,0.0,0.0,92,0.00,,,0.00,Wunderground v.1.15,2013-01-27 08:31:00,
2013-01-27 03:37:00,10.1,8.2,30.54,NNW,331,0.0,0.0,92,0.00,,,0.00,Wunderground v.1.15,2013-01-27 08:37:00,
2013-01-27 03:43:00,10.2,8.3,30.54,NNW,331,0.0,0.0,92,0.00,,,0.00,Wunderground v.1.15,2013-01-27 08:43:00,
2013-01-27 03:48:00,10.3,8.4,30.54,NNW,331,0.0,0.0,92,0.00,,,0.00,Wunderground v.1.15,2013-01-27 08:48:00,
2013-01-27 03:53:00,10.3,8.4,30.55,NNW,331,0.0,0.0,92,0.00,,,0.00,Wunderground v.1.15,2013-01-27 08:53:00,
2013-01-27 04:00:00,10.4,8.5,30.54,NNW,331,0.0,0.0,92,0.00,,,0.00,Wunderground v.1.15,2013-01-27 09:00:00,
2013-01-27 04:05:00,10.5,8.6,30.54,NNW,331,0.0,0.0,92,0.00,,,0.00,Wunderground v.1.15,2013-01-27 09:05:00,
2013-01-27 04:11:00,10.6,8.7,30.54,NNW,331,0.0,0.0,92,0.00,,,0.00,Wunderground v.1.15,2013-01-27 09:11:00,
2013-01-27 04:16:00,10.7,8.8,30.54,NNW,331,0.0,0.0,92,0.00,,,0.00,Wunderground v.1.15,2013-01-27 09:16:00,
2013-01-27 04:21:00,10.8,8.9,30.55,NNW,331,0.0,0.0,92,0.00,,,0.00,Wunderground v.1.15,2013-01-27 09:21:00,
2013-01-27 04:26:00,10.8,8.9,30.55,NNW,331,0.0,0.0,92,0.00,,,0.00,Wunderground v.1.15,2013-01-27 09:26:00,
2013-01-27 04:31:00,10.8,8.9,30.54,NNW,331,0.0,0.0,92,0.00,,,0.00,Wunderground v.1.15,2013-01-27 09:31:00,
2013-01-27 04:36:00,10.7,8.8,30.54,NNW,331,0.0,0.0,92,0.00,,,0.00,Wunderground v.1.15,2013-01-27 09:36:00,
2013-01-27 04:41:00,10.4,8.5,30.55,NNW,331,0.0,0.0,92,0.00,,,0.00,Wunderground v.1.15,2013-01-27 09:41:00,
2013-01-27 04:46:00,10.1,8.0,30.55,NNW,331,0.0,0.0,91,0.00,,,0.00,Wunderground v.1.15,2013-01-27 09:46:00,
2013-01-27 04:51:00,9.9,7.8,30.55,NNW,331,0.0,0.0,91,0.00,,,0.00,Wunderground v.1.15,2013-01-27 09:51:00,
2013-01-27 04:57:00,9.4,7.3,30.55,NNW,331,0.0,0.0,91,0.00,,,0.00,Wunderground v.1.15,2013-01-27 09:57:00,
2013-01-27 05:02:00,9.1,7.0,30.54,NNW,331,0.0,0.0,91,0.00,,,0.00,Wunderground v.1.15,2013-01-27 10:02:00,
2013-01-27 05:07:00,8.9,6.8,30.54,NNW,331,0.0,0.0,91,0.00,,,0.00,Wunderground v.1.15,2013-01-27 10:07:00,
2013-01-27 05:12:00,8.4,6.1,30.54,NNW,331,0.0,1.0,90,0.00,,,0.00,Wunderground v.1.15,2013-01-27 10:12:00,
2013-01-27 05:18:00,8.0,5.7,30.54,NNW,331,0.0,1.0,90,0.00,,,0.00,Wunderground v.1.15,2013-01-27 10:18:00,
2013-01-27 05:25:00,7.8,5.5,30.54,NNW,331,0.0,0.0,90,0.00,,,0.00,Wunderground v.1.15,2013-01-27 10:25:00,
2013-01-27 05:31:00,7.4,5.1,30.54,NNW,331,0.0,0.0,90,0.00,,,0.00,Wunderground v.1.15,2013-01-27 10:31:00,
2013-01-27 05:36:00,7.1,4.8,30.54,NNW,331,0.0,1.0,90,0.00,,,0.00,Wunderground v.1.15,2013-01-27 10:36:00,
2013-01-27 05:42:00,6.9,4.6,30.54,NNW,331,0.0,1.0,90,0.00,,,0.00,Wunderground v.1.15,2013-01-27 10:42:00,
2013-01-27 05:48:00,6.6,4.3,30.54,NNW,331,0.0,1.0,90,0.00,,,0.00,Wunderground v.1.15,2013-01-27 10:48:00,
2013-01-27 05:53:00,6.2,3.9,30.55,NNW,331,0.0,1.0,90,0.00,,,0.00,Wunderground v.1.15,2013-01-27 10:53:00,
2013-01-27 05:58:00,6.0,3.7,30.55,NNW,331,0.0,1.0,90,0.00,,,0.00,Wunderground v.1.15,2013-01-27 10:58:00,
2013-01-27 06:03:00,5.9,3.6,30.55,NNW,331,0.0,0.0,90,0.00,,,0.00,Wunderground v.1.15,2013-01-27 11:03:00,
2013-01-27 06:09:00,5.8,3.5,30.55,NNW,331,0.0,0.0,90,0.00,,,0.00,Wunderground v.1.15,2013-01-27 11:09:00,
2013-01-27 06:15:00,5.6,3.3,30.55,NNW,331,0.0,0.0,90,0.00,,,0.00,Wunderground v.1.15,2013-01-27 11:15:00,
2013-01-27 06:20:00,5.5,3.2,30.56,NNW,331,0.0,0.0,90,0.00,,,0.00,Wunderground v.1.15,2013-01-27 11:20:00,
2013-01-27 06:25:00,5.4,3.1,30.56,NNW,331,0.0,0.0,90,0.00,,,0.00,Wunderground v.1.15,2013-01-27 11:25:00,
2013-01-27 06:30:00,5.3,3.0,30.57,NNW,331,0.0,0.0,90,0.00,,,0.00,Wunderground v.1.15,2013-01-27 11:30:00,
2013-01-27 06:36:00,5.4,3.1,30.57,NNW,331,0.0,1.0,90,0.00,,,0.00,Wunderground v.1.15,2013-01-27 11:36:00,
2013-01-27 06:42:00,5.4,3.1,30.58,NNW,331,0.0,1.0,90,0.00,,,0.00,Wunderground v.1.15,2013-01-27 11:42:00,
2013-01-27 06:48:00,5.4,3.1,30.58,NNW,331,0.0,1.0,90,0.00,,,0.00,Wunderground v.1.15,2013-01-27 11:48:00,
2013-01-27 06:54:00,5.4,3.1,30.58,NNW,331,0.0,0.0,90,0.00,,,0.00,Wunderground v.1.15,2013-01-27 11:54:00,
2013-01-27 07:00:00,5.3,3.0,30.58,NNW,331,0.0,0.0,90,0.00,,,0.00,Wunderground v.1.15,2013-01-27 12:00:00,
2013-01-27 07:05:00,5.2,2.9,30.58,NNW,331,0.0,0.0,90,0.00,,,0.00,Wunderground v.1.15,2013-01-27 12:05:00,
2013-01-27 07:10:00,5.0,2.7,30.58,NNW,331,0.0,0.0,90,0.00,,,0.00,Wunderground v.1.15,2013-01-27 12:10:00,
2013-01-27 07:15:00,5.0,2.7,30.58,NNW,331,0.0,0.0,90,0.00,,,0.00,Wunderground v.1.15,2013-01-27 12:15:00,
2013-01-27 07:20:00,4.9,2.6,30.58,NNW,331,0.0,0.0,90,0.00,,,0.00,Wunderground v.1.15,2013-01-27 12:20:00,
2013-01-27 07:26:00,4.8,2.5,30.58,NNW,331,0.0,0.0,90,0.00,,,0.00,Wunderground v.1.15,2013-01-27 12:26:00,
2013-01-27 07:32:00,4.7,2.4,30.58,NNW,331,0.0,0.0,90,0.00,,,0.00,Wunderground v.1.15,2013-01-27 12:32:00,
2013-01-27 07:37:00,4.4,2.1,30.59,NNW,331,0.0,0.0,90,0.00,,,0.00,Wunderground v.1.15,2013-01-27 12:37:00,
2013-01-27 07:42:00,4.4,2.1,30.59,NNW,331,0.0,0.0,90,0.00,,,0.00,Wunderground v.1.15,2013-01-27 12:42:00,
2013-01-27 07:47:00,4.1,1.8,30.60,NNW,331,0.0,0.0,90,0.00,,,0.00,Wunderground v.1.15,2013-01-27 12:47:00,
2013-01-27 07:53:00,3.8,1.5,30.60,NNW,331,0.0,0.0,90,0.00,,,0.00,Wunderground v.1.15,2013-01-27 12:53:00,
2013-01-27 07:58:00,3.8,1.5,30.59,NNW,331,0.0,0.0,90,0.00,,,0.00,Wunderground v.1.15,2013-01-27 12:58:00,
2013-01-27 08:04:00,3.8,1.5,30.59,NNW,331,0.0,0.0,90,0.00,,,0.00,Wunderground v.1.15,2013-01-27 13:04:00,
2013-01-27 08:10:00,3.8,1.5,30.59,NNW,331,0.0,0.0,90,0.00,,,0.00,Wunderground v.1.15,2013-01-27 13:10:00,
2013-01-27 08:15:00,3.9,1.6,30.59,NNW,331,0.0,0.0,90,0.00,,,0.00,Wunderground v.1.15,2013-01-27 13:15:00,
2013-01-27 08:20:00,4.1,1.8,30.60,NNW,331,0.0,0.0,90,0.00,,,0.00,Wunderground v.1.15,2013-01-27 13:20:00,
2013-01-27 08:25:00,4.4,2.1,30.59,NNW,331,0.0,0.0,90,0.00,,,0.00,Wunderground v.1.15,2013-01-27 13:25:00,
2013-01-27 08:30:00,4.8,2.8,30.60,NNW,331,0.0,0.0,91,0.00,,,0.00,Wunderground v.1.15,2013-01-27 13:30:00,
2013-01-27 08:36:00,5.6,3.5,30.60,NNW,331,0.0,0.0,91,0.00,,,0.00,Wunderground v.1.15,2013-01-27 13:36:00,
2013-01-27 08:41:00,6.0,3.9,30.60,NNW,331,0.0,0.0,91,0.00,,,0.00,Wunderground v.1.15,2013-01-27 13:41:00,
2013-01-27 08:46:00,6.9,5.1,30.60,NNW,331,0.0,0.0,92,0.00,,,0.00,Wunderground v.1.15,2013-01-27 13:46:00,
2013-01-27 08:51:00,8.0,6.2,30.60,NNW,331,0.0,0.0,92,0.00,,,0.00,Wunderground v.1.15,2013-01-27 13:51:00,
2013-01-27 08:57:00,8.7,6.9,30.60,NNW,331,0.0,0.0,92,0.00,,,0.00,Wunderground v.1.15,2013-01-27 13:57:00,
2013-01-27 09:03:00,9.5,7.6,30.59,NNW,331,0.0,0.0,92,0.00,,,0.00,Wunderground v.1.15,2013-01-27 14:03:00,
2013-01-27 09:08:00,10.5,8.9,30.59,NNW,331,0.0,0.0,93,0.00,,,0.00,Wunderground v.1.15,2013-01-27 14:08:00,
2013-01-27 09:13:00,11.1,9.5,30.60,NNW,331,0.0,0.0,93,0.00,,,0.00,Wunderground v.1.15,2013-01-27 14:13:00,
2013-01-27 09:18:00,11.9,10.3,30.60,NNW,331,0.0,0.0,93,0.00,,,0.00,Wunderground v.1.15,2013-01-27 14:18:00,
2013-01-27 09:24:00,13.3,11.7,30.60,NNW,331,0.0,0.0,93,0.00,,,0.00,Wunderground v.1.15,2013-01-27 14:24:00,
2013-01-27 09:30:00,14.5,12.8,30.60,NNW,331,0.0,0.0,93,0.00,,,0.00,Wunderground v.1.15,2013-01-27 14:30:00,
2013-01-27 09:36:00,15.8,14.1,30.59,NNW,331,0.0,0.0,93,0.00,,,0.00,Wunderground v.1.15,2013-01-27 14:36:00,
2013-01-27 09:41:00,16.8,15.1,30.59,NNW,331,0.0,0.0,93,0.00,,,0.00,Wunderground v.1.15,2013-01-27 14:41:00,
2013-01-27 09:46:00,17.5,15.6,30.59,NNW,331,0.0,0.0,92,0.00,,,0.00,Wunderground v.1.15,2013-01-27 14:46:00,
2013-01-27 09:52:00,18.1,15.9,30.60,NNW,330,0.0,1.0,91,0.00,,,0.00,Wunderground v.1.15,2013-01-27 14:52:00,
2013-01-27 09:57:00,18.8,16.6,30.60,North,360,0.0,1.0,91,0.00,,,0.00,Wunderground v.1.15,2013-01-27 14:57:00,
2013-01-27 10:03:00,20.1,17.9,30.59,SE,128,0.0,2.0,91,0.00,,,0.00,Wunderground v.1.15,2013-01-27 15:03:00,
2013-01-27 10:08:00,21.4,18.9,30.60,SE,125,1.0,2.0,90,0.00,,,0.00,Wunderground v.1.15,2013-01-27 15:08:00,
2013-01-27 10:13:00,22.7,19.9,30.60,ESE,117,1.0,5.0,89,0.00,,,0.00,Wunderground v.1.15,2013-01-27 15:13:00,
2013-01-27 10:20:00,23.8,20.2,30.61,NE,49,2.0,5.0,86,0.00,,,0.00,Wunderground v.1.15,2013-01-27 15:20:00,
2013-01-27 10:25:00,24.2,19.8,30.61,ENE,69,2.0,3.0,83,0.00,,,0.00,Wunderground v.1.15,2013-01-27 15:25:00,
2013-01-27 10:30:00,24.3,19.3,30.60,NE,52,2.0,2.0,81,0.00,,,0.00,Wunderground v.1.15,2013-01-27 15:30:00,
2013-01-27 10:35:00,24.6,19.6,30.60,ESE,104,2.0,3.0,81,0.00,,,0.00,Wunderground v.1.15,2013-01-27 15:35:00,
2013-01-27 10:41:00,25.1,19.5,30.60,ESE,105,2.0,3.0,79,0.00,,,0.00,Wunderground v.1.15,2013-01-27 15:41:00,
2013-01-27 10:47:00,25.5,19.6,30.60,South,170,2.0,3.0,78,0.00,,,0.00,Wunderground v.1.15,2013-01-27 15:47:00,
2013-01-27 10:52:00,25.9,19.4,30.60,SSE,157,1.0,2.0,76,0.00,,,0.00,Wunderground v.1.15,2013-01-27 15:52:00,
2013-01-27 10:58:00,26.2,18.7,30.60,ESE,107,1.0,2.0,73,0.00,,,0.00,Wunderground v.1.15,2013-01-27 15:58:00,
2013-01-27 11:03:00,26.4,18.9,30.60,SSE,167,2.0,4.0,73,0.00,,,0.00,Wunderground v.1.15,2013-01-27 16:03:00,
2013-01-27 11:08:00,26.4,18.6,30.60,SE,142,3.0,5.0,72,0.00,,,0.00,Wunderground v.1.15,2013-01-27 16:08:00,
2013-01-27 11:14:00,26.5,18.7,30.59,SE,142,2.0,4.0,72,0.00,,,0.00,Wunderground v.1.15,2013-01-27 16:14:00,
2013-01-27 11:20:00,27.0,19.2,30.58,SSE,163,2.0,5.0,72,0.00,,,0.00,Wunderground v.1.15,2013-01-27 16:20:00,
2013-01-27 11:26:00,27.1,18.9,30.58,SE,137,2.0,5.0,71,0.00,,,0.00,Wunderground v.1.15,2013-01-27 16:26:00,
2013-01-27 11:31:00,27.1,18.6,30.58,SE,144,2.0,5.0,70,0.00,,,0.00,Wunderground v.1.15,2013-01-27 16:31:00,
2013-01-27 11:36:00,27.0,18.8,30.58,South,181,1.0,5.0,71,0.00,,,0.00,Wunderground v.1.15,2013-01-27 16:36:00,
2013-01-27 11:41:00,26.8,18.7,30.57,ESE,107,2.0,5.0,71,0.00,,,0.00,Wunderground v.1.15,2013-01-27 16:41:00,
2013-01-27 11:47:00,27.2,19.0,30.57,East,92,2.0,5.0,71,0.00,,,0.00,Wunderground v.1.15,2013-01-27 16:47:00,
2013-01-27 11:52:00,27.4,19.2,30.57,SE,131,2.0,5.0,71,0.00,,,0.00,Wunderground v.1.15,2013-01-27 16:52:00,
2013-01-27 11:58:00,27.3,19.1,30.57,East,91,3.0,5.0,71,0.00,,,0.00,Wunderground v.1.15,2013-01-27 16:58:00,
2013-01-27 12:03:00,27.6,19.4,30.56,East,100,3.0,3.0,71,0.00,,,0.00,Wunderground v.1.15,2013-01-27 17:03:00,
2013-01-27 12:08:00,27.9,19.4,30.56,East,80,3.0,5.0,70,0.00,,,0.00,Wunderground v.1.15,2013-01-27 17:08:00,
2013-01-27 12:13:00,28.5,20.0,30.56,ESE,105,2.0,2.0,70,0.00,,,0.00,Wunderground v.1.15,2013-01-27 17:13:00,
2013-01-27 12:18:00,28.4,19.5,30.56,SSW,205,2.0,5.0,69,0.00,,,0.00,Wunderground v.1.15,2013-01-27 17:18:00,
2013-01-27 12:24:00,28.3,19.8,30.56,South,182,3.0,4.0,70,0.00,,,0.00,Wunderground v.1.15,2013-01-27 17:24:00,
2013-01-27 12:29:00,28.4,19.9,30.55,SSE,154,2.0,6.0,70,0.00,,,0.00,Wunderground v.1.15,2013-01-27 17:29:00,
2013-01-27 12:35:00,28.8,20.2,30.55,South,184,3.0,6.0,70,0.00,,,0.00,Wunderground v.1.15,2013-01-27 17:35:00,
2013-01-27 12:40:00,28.7,19.8,30.54,West,259,2.0,2.0,69,0.00,,,0.00,Wunderground v.1.15,2013-01-27 17:40:00,
2013-01-27 12:46:00,29.1,20.2,30.54,South,169,1.0,6.0,69,0.00,,,0.00,Wunderground v.1.15,2013-01-27 17:46:00,
2013-01-27 12:51:00,29.4,20.1,30.54,ESE,113,3.0,6.0,68,0.00,,,0.00,Wunderground v.1.15,2013-01-27 17:51:00,
2013-01-27 12:56:00,29.2,20.3,30.54,SE,144,4.0,6.0,69,0.00,,,0.00,Wunderground v.1.15,2013-01-27 17:56:00,
2013-01-27 13:01:00,29.2,19.9,30.53,SSE,161,3.0,3.0,68,0.00,,,0.00,Wunderground v.1.15,2013-01-27 18:01:00,
2013-01-27 13:07:00,29.8,20.2,30.53,SSE,161,1.0,3.0,67,0.00,,,0.00,Wunderground v.1.15,2013-01-27 18:07:00,
2013-01-27 13:12:00,30.0,20.7,30.53,SSE,161,1.0,4.0,68,0.00,,,0.00,Wunderground v.1.15,2013-01-27 18:12:00,
2013-01-27 13:17:00,29.8,19.8,30.53,South,174,2.0,4.0,66,0.00,,,0.00,Wunderground v.1.15,2013-01-27 18:17:00,
2013-01-27 13:23:00,30.2,20.6,30.53,SSW,195,2.0,2.0,67,0.00,,,0.00,Wunderground v.1.15,2013-01-27 18:23:00,
2013-01-27 13:28:00,30.1,20.5,30.52,SSE,150,0.0,3.0,67,0.00,,,0.00,Wunderground v.1.15,2013-01-27 18:28:00,
2013-01-27 13:34:00,30.4,20.4,30.52,NE,44,1.0,8.0,66,0.00,,,0.00,Wunderground v.1.15,2013-01-27 18:34:00,
2013-01-27 13:40:00,30.8,20.4,30.52,SSE,166,1.0,8.0,65,0.00,,,0.00,Wunderground v.1.15,2013-01-27 18:40:00,
2013-01-27 13:46:00,31.4,21.3,30.52,SW,225,0.0,8.0,66,0.00,,,0.00,Wunderground v.1.15,2013-01-27 18:46:00,
2013-01-27 13:52:00,31.6,21.2,30.52,SSE,164,0.0,8.0,65,0.00,,,0.00,Wunderground v.1.15,2013-01-27 18:52:00,
2013-01-27 13:58:00,32.0,21.2,30.52,ENE,72,1.0,8.0,64,0.00,,,0.00,Wunderground v.1.15,2013-01-27 18:58:00,
2013-01-27 14:03:00,32.0,21.2,30.51,East,90,2.0,3.0,64,0.00,,,0.00,Wunderground v.1.15,2013-01-27 19:03:00,
2013-01-27 14:08:00,32.0,21.2,30.51,ENE,59,2.0,3.0,64,0.00,,,0.00,Wunderground v.1.15,2013-01-27 19:08:00,
2013-01-27 14:13:00,32.0,21.2,30.51,NW,324,1.0,2.0,64,0.00,,,0.00,Wunderground v.1.15,2013-01-27 19:13:00,
2013-01-27 14:19:00,32.3,21.5,30.51,NW,310,0.0,2.0,64,0.00,,,0.00,Wunderground v.1.15,2013-01-27 19:19:00,
2013-01-27 14:25:00,32.5,21.7,30.51,SE,146,0.0,3.0,64,0.00,,,0.00,Wunderground v.1.15,2013-01-27 19:25:00,
2013-01-27 14:30:00,32.7,21.5,30.51,SE,129,1.0,3.0,63,0.00,,,0.00,Wunderground v.1.15,2013-01-27 19:30:00,
2013-01-27 14:36:00,32.5,21.3,30.51,SE,141,2.0,7.0,63,0.00,,,0.00,Wunderground v.1.15,2013-01-27 19:36:00,
2013-01-27 14:41:00,32.4,21.6,30.51,SSE,160,3.0,7.0,64,0.00,,,0.00,Wunderground v.1.15,2013-01-27 19:41:00,
2013-01-27 14:46:00,32.5,21.7,30.51,East,82,2.0,7.0,64,0.00,,,0.00,Wunderground v.1.15,2013-01-27 19:46:00,
2013-01-27 14:51:00,32.0,21.6,30.51,ENE,69,2.0,7.0,65,0.00,,,0.00,Wunderground v.1.15,2013-01-27 19:51:00,
2013-01-27 14:56:00,32.0,21.2,30.51,ESE,105,2.0,7.0,64,0.00,,,0.00,Wunderground v.1.15,2013-01-27 19:56:00,
2013-01-27 15:02:00,32.4,21.6,30.51,NNW,342,1.0,3.0,64,0.00,,,0.00,Wunderground v.1.15,2013-01-27 20:02:00,
2013-01-27 15:08:00,32.7,21.9,30.50,NNE,29,0.0,3.0,64,0.00,,,0.00,Wunderground v.1.15,2013-01-27 20:08:00,
2013-01-27 15:13:00,32.8,21.6,30.50,NNE,29,1.0,1.0,63,0.00,,,0.00,Wunderground v.1.15,2013-01-27 20:13:00,
2013-01-27 15:20:00,32.8,22.0,30.49,SE,132,2.0,4.0,64,0.00,,,0.00,Wunderground v.1.15,2013-01-27 20:20:00,
2013-01-27 15:25:00,32.6,21.8,30.49,SSE,158,2.0,3.0,64,0.00,,,0.00,Wunderground v.1.15,2013-01-27 20:25:00,
2013-01-27 15:30:00,32.4,21.6,30.48,SSE,153,3.0,3.0,64,0.00,,,0.00,Wunderground v.1.15,2013-01-27 20:30:00,
2013-01-27 15:36:00,32.3,21.5,30.48,East,91,3.0,5.0,64,0.00,,,0.00,Wunderground v.1.15,2013-01-27 20:36:00,
2013-01-27 15:41:00,32.3,21.5,30.48,ENE,78,2.0,5.0,64,0.00,,,0.00,Wunderground v.1.15,2013-01-27 20:41:00,
2013-01-27 15:46:00,32.3,21.5,30.47,SE,125,1.0,5.0,64,0.00,,,0.00,Wunderground v.1.15,2013-01-27 20:46:00,
2013-01-27 15:51:00,32.4,21.9,30.47,East,81,1.0,3.0,65,0.00,,,0.00,Wunderground v.1.15,2013-01-27 20:51:00,
2013-01-27 15:56:00,32.3,21.8,30.48,ESE,123,2.0,5.0,65,0.00,,,0.00,Wunderground v.1.15,2013-01-27 20:56:00,
2013-01-27 16:02:00,32.3,22.2,30.49,ESE,123,1.0,1.0,66,0.00,,,0.00,Wunderground v.1.15,2013-01-27 21:02:00,
2013-01-27 16:07:00,32.4,21.9,30.48,NE,39,0.0,1.0,65,0.00,,,0.00,Wunderground v.1.15,2013-01-27 21:07:00,
2013-01-27 16:12:00,32.4,21.9,30.48,NE,42,0.0,2.0,65,0.00,,,0.00,Wunderground v.1.15,2013-01-27 21:12:00,
2013-01-27 16:17:00,32.3,21.8,30.48,NE,42,0.0,2.0,65,0.00,,,0.00,Wunderground v.1.15,2013-01-27 21:17:00,
2013-01-27 16:23:00,32.1,21.3,30.48,ESE,111,1.0,3.0,64,0.00,,,0.00,Wunderground v.1.15,2013-01-27 21:23:00,
2013-01-27 16:28:00,32.1,21.7,30.48,ESE,111,1.0,3.0,65,0.00,,,0.00,Wunderground v.1.15,2013-01-27 21:28:00,
2013-01-27 16:33:00,32.0,21.6,30.48,ESE,111,0.0,6.0,65,0.00,,,0.00,Wunderground v.1.15,2013-01-27 21:33:00,
2013-01-27 16:38:00,32.0,21.6,30.48,ESE,111,0.0,6.0,65,0.00,,,0.00,Wunderground v.1.15,2013-01-27 21:38:00,
2013-01-27 16:43:00,32.0,21.6,30.48,ESE,111,1.0,6.0,65,0.00,,,0.00,Wunderground v.1.15,2013-01-27 21:43:00,
2013-01-27 16:48:00,31.9,21.8,30.48,ESE,111,0.0,6.0,66,0.00,,,0.00,Wunderground v.1.15,2013-01-27 21:48:00,
2013-01-27 16:55:00,31.8,21.4,30.48,ESE,111,0.0,6.0,65,0.00,,,0.00,Wunderground v.1.15,2013-01-27 21:55:00,
2013-01-27 17:01:00,31.8,22.1,30.47,ESE,111,0.0,0.0,67,0.00,,,0.00,Wunderground v.1.15,2013-01-27 22:01:00,
2013-01-27 17:06:00,31.8,22.8,30.48,ESE,111,0.0,0.0,69,0.00,,,0.00,Wunderground v.1.15,2013-01-27 22:06:00,
2013-01-27 17:12:00,31.7,22.3,30.47,ESE,111,0.0,0.0,68,0.00,,,0.00,Wunderground v.1.15,2013-01-27 22:12:00,
2013-01-27 17:17:00,31.6,22.2,30.47,ESE,111,0.0,0.0,68,0.00,,,0.00,Wunderground v.1.15,2013-01-27 22:17:00,
2013-01-27 17:22:00,31.5,21.8,30.47,ESE,111,0.0,0.0,67,0.00,,,0.00,Wunderground v.1.15,2013-01-27 22:22:00,
2013-01-27 17:28:00,31.4,22.7,30.46,ESE,111,0.0,0.0,70,0.00,,,0.00,Wunderground v.1.15,2013-01-27 22:28:00,
2013-01-27 17:33:00,31.3,23.0,30.46,ESE,111,0.0,4.0,71,0.00,,,0.00,Wunderground v.1.15,2013-01-27 22:33:00,
2013-01-27 17:38:00,31.2,22.9,30.45,ESE,111,0.0,4.0,71,0.00,,,0.00,Wunderground v.1.15,2013-01-27 22:38:00,
2013-01-27 17:44:00,31.0,23.7,30.45,ESE,111,0.0,4.0,74,0.00,,,0.00,Wunderground v.1.15,2013-01-27 22:44:00,
2013-01-27 17:50:00,30.7,23.4,30.45,ESE,111,0.0,4.0,74,0.00,,,0.00,Wunderground v.1.15,2013-01-27 22:50:00,
2013-01-27 17:56:00,30.6,23.6,30.46,ESE,111,0.0,4.0,75,0.00,,,0.00,Wunderground v.1.15,2013-01-27 22:56:00,
2013-01-27 18:01:00,30.5,23.8,30.46,ESE,111,0.0,0.0,76,0.00,,,0.00,Wunderground v.1.15,2013-01-27 23:01:00,
2013-01-27 18:06:00,30.2,23.2,30.46,ESE,111,0.0,0.0,75,0.00,,,0.00,Wunderground v.1.15,2013-01-27 23:06:00,
2013-01-27 18:11:00,30.0,22.7,30.44,ESE,111,0.0,0.0,74,0.00,,,0.00,Wunderground v.1.15,2013-01-27 23:11:00,
2013-01-27 18:16:00,29.9,22.3,30.44,ESE,111,0.0,0.0,73,0.00,,,0.00,Wunderground v.1.15,2013-01-27 23:16:00,
2013-01-27 18:21:00,29.9,22.9,30.45,ESE,111,0.0,0.0,75,0.00,,,0.00,Wunderground v.1.15,2013-01-27 23:21:00,
2013-01-27 18:27:00,29.9,23.9,30.45,ESE,111,0.0,0.0,78,0.00,,,0.00,Wunderground v.1.15,2013-01-27 23:27:00,
2013-01-27 18:32:00,29.8,23.8,30.45,ESE,111,0.0,1.0,78,0.00,,,0.00,Wunderground v.1.15,2013-01-27 23:32:00,
2013-01-27 18:38:00,29.7,23.7,30.44,ESE,111,0.0,1.0,78,0.00,,,0.00,Wunderground v.1.15,2013-01-27 23:38:00,
2013-01-27 18:43:00,29.6,23.6,30.44,ESE,111,0.0,1.0,78,0.00,,,0.00,Wunderground v.1.15,2013-01-27 23:43:00,
2013-01-27 18:50:00,29.4,23.7,30.45,ESE,111,0.0,1.0,79,0.00,,,0.00,Wunderground v.1.15,2013-01-27 23:50:00,
2013-01-27 18:55:00,29.2,22.9,30.45,ESE,111,0.0,1.0,77,0.00,,,0.00,Wunderground v.1.15,2013-01-27 23:55:00,
2013-01-27 19:00:00,29.1,23.1,30.44,ESE,111,0.0,0.0,78,0.00,,,0.00,Wunderground v.1.15,2013-01-28 00:00:00,
2013-01-27 19:06:00,29.1,23.7,30.44,ESE,111,0.0,0.0,80,0.00,,,0.00,Wunderground v.1.15,2013-01-28 00:06:00,
2013-01-27 19:12:00,28.9,23.5,30.45,ESE,111,0.0,0.0,80,0.00,,,0.00,Wunderground v.1.15,2013-01-28 00:12:00,
2013-01-27 19:17:00,28.8,23.7,30.44,ESE,111,0.0,0.0,81,0.00,,,0.00,Wunderground v.1.15,2013-01-28 00:17:00,
2013-01-27 19:23:00,28.8,23.4,30.46,ESE,111,0.0,0.0,80,0.00,,,0.00,Wunderground v.1.15,2013-01-28 00:23:00,
2013-01-27 19:29:00,28.8,24.0,30.46,ESE,111,0.0,0.0,82,0.00,,,0.00,Wunderground v.1.15,2013-01-28 00:29:00,
2013-01-27 19:34:00,28.8,24.3,30.46,ESE,111,0.0,1.0,83,0.00,,,0.00,Wunderground v.1.15,2013-01-28 00:34:00,
2013-01-27 19:39:00,28.8,24.3,30.46,ESE,111,0.0,1.0,83,0.00,,,0.00,Wunderground v.1.15,2013-01-28 00:39:00,
2013-01-27 19:44:00,28.8,24.0,30.46,ESE,111,0.0,1.0,82,0.00,,,0.00,Wunderground v.1.15,2013-01-28 00:44:00,
2013-01-27 19:50:00,28.8,24.0,30.45,ESE,111,0.0,1.0,82,0.00,,,0.00,Wunderground v.1.15,2013-01-28 00:50:00,
2013-01-27 19:56:00,28.8,24.0,30.45,ESE,111,0.0,1.0,82,0.00,,,0.00,Wunderground v.1.15,2013-01-28 00:56:00,
2013-01-27 20:01:00,28.8,24.0,30.45,ESE,111,0.0,0.0,82,0.00,,,0.00,Wunderground v.1.15,2013-01-28 01:01:00,
2013-01-27 20:06:00,28.9,24.1,30.45,ESE,111,0.0,0.0,82,0.00,,,0.00,Wunderground v.1.15,2013-01-28 01:06:00,
2013-01-27 20:11:00,28.9,24.1,30.45,ESE,111,0.0,0.0,82,0.00,,,0.00,Wunderground v.1.15,2013-01-28 01:11:00,
2013-01-27 20:17:00,29.0,24.5,30.44,ESE,111,0.0,0.0,83,0.00,,,0.00,Wunderground v.1.15,2013-01-28 01:17:00,
2013-01-27 20:22:00,29.0,24.2,30.44,ESE,111,0.0,0.0,82,0.00,,,0.00,Wunderground v.1.15,2013-01-28 01:22:00,
2013-01-27 20:28:00,29.0,24.5,30.45,ESE,111,0.0,0.0,83,0.00,,,0.00,Wunderground v.1.15,2013-01-28 01:28:00,
2013-01-27 20:35:00,29.1,24.6,30.45,ESE,111,0.0,1.0,83,0.00,,,0.00,Wunderground v.1.15,2013-01-28 01:35:00,
2013-01-27 20:41:00,29.1,24.3,30.44,ESE,111,0.0,1.0,82,0.00,,,0.00,Wunderground v.1.15,2013-01-28 01:41:00,
2013-01-27 20:46:00,29.2,24.4,30.43,ESE,111,0.0,1.0,82,0.00,,,0.00,Wunderground v.1.15,2013-01-28 01:46:00,
2013-01-27 20:51:00,29.3,24.5,30.43,ESE,111,0.0,1.0,82,0.00,,,0.00,Wunderground v.1.15,2013-01-28 01:51:00,
2013-01-27 20:57:00,29.2,23.8,30.42,ESE,111,0.0,1.0,80,0.00,,,0.00,Wunderground v.1.15,2013-01-28 01:57:00,
2013-01-27 21:03:00,29.3,23.6,30.42,ESE,111,0.0,2.0,79,0.00,,,0.00,Wunderground v.1.15,2013-01-28 02:03:00,
2013-01-27 21:09:00,29.3,23.6,30.42,ESE,111,1.0,2.0,79,0.00,,,0.00,Wunderground v.1.15,2013-01-28 02:09:00,
2013-01-27 21:14:00,29.4,23.4,30.43,ESE,111,0.0,1.0,78,0.00,,,0.00,Wunderground v.1.15,2013-01-28 02:14:00,
2013-01-27 21:19:00,29.4,23.4,30.42,ESE,111,0.0,1.0,78,0.00,,,0.00,Wunderground v.1.15,2013-01-28 02:19:00,
2013-01-27 21:25:00,29.5,22.9,30.43,ESE,111,0.0,1.0,76,0.00,,,0.00,Wunderground v.1.15,2013-01-28 02:25:00,
2013-01-27 21:31:00,29.6,23.0,30.42,ESE,111,0.0,0.0,76,0.00,,,0.00,Wunderground v.1.15,2013-01-28 02:31:00,
2013-01-27 21:36:00,29.6,23.0,30.42,ESE,111,0.0,0.0,76,0.00,,,0.00,Wunderground v.1.15,2013-01-28 02:36:00,
2013-01-27 21:42:00,29.6,23.0,30.42,ESE,111,0.0,0.0,76,0.00,,,0.00,Wunderground v.1.15,2013-01-28 02:42:00,
2013-01-27 21:47:00,29.6,23.0,30.43,ESE,111,0.0,0.0,76,0.00,,,0.00,Wunderground v.1.15,2013-01-28 02:47:00,
2013-01-27 21:52:00,29.7,23.7,30.43,ESE,111,0.0,0.0,78,0.00,,,0.00,Wunderground v.1.15,2013-01-28 02:52:00,
2013-01-27 21:58:00,29.7,23.7,30.43,ESE,111,0.0,0.0,78,0.00,,,0.00,Wunderground v.1.15,2013-01-28 02:58:00,
2013-01-27 22:03:00,29.7,23.4,30.43,ESE,111,0.0,0.0,77,0.00,,,0.00,Wunderground v.1.15,2013-01-28 03:03:00,
2013-01-27 22:09:00,29.8,23.8,30.42,ESE,111,0.0,0.0,78,0.00,,,0.00,Wunderground v.1.15,2013-01-28 03:09:00,
2013-01-27 22:14:00,29.8,24.1,30.42,ESE,111,0.0,0.0,79,0.00,,,0.00,Wunderground v.1.15,2013-01-28 03:14:00,
2013-01-27 22:20:00,29.8,24.4,30.42,ESE,111,0.0,0.0,80,0.00,,,0.00,Wunderground v.1.15,2013-01-28 03:20:00,
2013-01-27 22:26:00,29.7,24.0,30.42,ESE,111,0.0,0.0,79,0.00,,,0.00,Wunderground v.1.15,2013-01-28 03:26:00,
2013-01-27 22:32:00,29.7,23.1,30.42,ESE,111,0.0,3.0,76,0.00,,,0.00,Wunderground v.1.15,2013-01-28 03:32:00,
2013-01-27 22:37:00,29.7,23.1,30.42,ESE,111,0.0,3.0,76,0.00,,,0.00,Wunderground v.1.15,2013-01-28 03:37:00,
2013-01-27 22:42:00,29.7,22.7,30.41,ESE,111,0.0,3.0,75,0.00,,,0.00,Wunderground v.1.15,2013-01-28 03:42:00,
2013-01-27 22:48:00,29.8,22.8,30.41,ESE,111,0.0,3.0,75,0.00,,,0.00,Wunderground v.1.15,2013-01-28 03:48:00,
2013-01-27 22:55:00,29.8,23.2,30.40,ESE,111,0.0,3.0,76,0.00,,,0.00,Wunderground v.1.15,2013-01-28 03:55:00,
2013-01-27 23:01:00,29.8,23.2,30.39,ESE,111,0.0,0.0,76,0.00,,,0.00,Wunderground v.1.15,2013-01-28 04:01:00,
2013-01-27 23:06:00,29.8,23.2,30.39,ESE,111,0.0,1.0,76,0.00,,,0.00,Wunderground v.1.15,2013-01-28 04:06:00,
2013-01-27 23:11:00,29.8,23.5,30.39,ESE,111,0.0,0.0,77,0.00,,,0.00,Wunderground v.1.15,2013-01-28 04:11:00,
2013-01-27 23:16:00,29.8,23.5,30.39,ESE,111,0.0,0.0,77,0.00,,,0.00,Wunderground v.1.15,2013-01-28 04:16:00,
2013-01-27 23:22:00,29.8,23.2,30.38,ESE,111,0.0,1.0,76,0.00,,,0.00,Wunderground v.1.15,2013-01-28 04:22:00,
2013-01-27 23:27:00,29.8,23.5,30.38,ESE,111,1.0,2.0,77,0.00,,,0.00,Wunderground v.1.15,2013-01-28 04:27:00,
2013-01-27 23:33:00,29.8,23.8,30.38,ESE,111,0.0,3.0,78,0.00,,,0.00,Wunderground v.1.15,2013-01-28 04:33:00,
2013-01-27 23:39:00,29.8,23.8,30.38,ESE,111,0.0,3.0,78,0.00,,,0.00,Wunderground v.1.15,2013-01-28 04:39:00,
2013-01-27 23:44:00,29.8,23.8,30.39,ESE,111,0.0,3.0,78,0.00,,,0.00,Wunderground v.1.15,2013-01-28 04:44:00,
2013-01-27 23:50:00,29.8,24.1,30.38,ESE,111,0.0,3.0,79,0.00,,,0.00,Wunderground v.1.15,2013-01-28 04:50:00,
2013-01-27 23:56:00,29.8,24.1,30.38,ESE,111,0.0,3.0,79,0.00,,,0.00,Wunderground v.1.15,2013-01-28 04:56:00,